createdAt,value
2019-06-07T00:00:01.435Z,1
2019-06-07T00:05:02.172Z,2
2019-06-07T00:10:01.988Z,3
2019-06-07T00:15:01.340Z,1
2019-06-07T00:20:01.842Z,2
2019-06-07T00:25:02.262Z,2
2019-06-07T00:30:29.795Z,2
2019-06-07T00:35:02.293Z,2
2019-06-07T00:40:14.105Z,3
2019-06-07T00:45:02.088Z,1
2019-06-07T00:50:01.405Z,2
2019-06-07T00:55:01.727Z,3
2019-06-07T01:00:02.036Z,2
2019-06-07T01:05:01.770Z,2
2019-06-07T01:10:01.535Z,3
2019-06-07T01:15:02.032Z,3
2019-06-07T01:20:01.424Z,4
2019-06-07T01:25:01.802Z,3
2019-06-07T01:30:02.209Z,1
2019-06-07T01:35:01.546Z,4
2019-06-07T01:40:01.355Z,1
2019-06-07T01:45:01.752Z,4
2019-06-07T01:50:02.118Z,3
2019-06-07T01:55:01.513Z,2
2019-06-07T02:00:01.841Z,3
2019-06-07T02:05:01.474Z,3
2019-06-07T02:10:02.263Z,3
2019-06-07T02:15:01.371Z,3
2019-06-07T02:20:01.864Z,3
2019-06-07T02:25:37.068Z,3
2019-06-07T02:30:35.526Z,3
2019-06-07T02:35:01.495Z,3
2019-06-07T02:40:02.334Z,2
2019-06-07T02:45:01.669Z,4
2019-06-07T02:50:02.035Z,3
2019-06-07T02:55:01.361Z,4
2019-06-07T03:00:17.093Z,3
2019-06-07T03:05:02.013Z,2
2019-06-07T03:10:01.958Z,2
2019-06-07T03:15:01.944Z,4
2019-06-07T03:20:01.395Z,2
2019-06-07T03:25:01.752Z,2
2019-06-07T03:30:35.239Z,4
2019-06-07T03:35:02.130Z,3
2019-06-07T03:40:01.973Z,4
2019-06-07T03:45:01.406Z,4
2019-06-07T03:50:01.836Z,5
2019-06-07T03:55:02.214Z,3
2019-06-07T04:00:01.554Z,5
2019-06-07T04:05:02.299Z,3
2019-06-07T04:10:02.079Z,4
2019-06-07T04:15:01.748Z,5
2019-06-07T04:20:02.678Z,4
2019-06-07T04:25:01.377Z,3
2019-06-07T04:30:07.434Z,4
2019-06-07T04:35:01.410Z,4
2019-06-07T04:40:02.217Z,4
2019-06-07T04:45:01.654Z,4
2019-06-07T04:50:02.333Z,4
2019-06-07T04:55:01.638Z,4
2019-06-07T05:00:12.870Z,3
2019-06-07T05:05:01.840Z,4
2019-06-07T05:10:01.611Z,4
2019-06-07T05:15:02.126Z,5
2019-06-07T05:20:01.513Z,5
2019-06-07T05:25:01.865Z,6
2019-06-07T05:30:24.192Z,6
2019-06-07T05:35:01.831Z,5
2019-06-07T05:40:01.637Z,6
2019-06-07T05:45:02.031Z,6
2019-06-07T05:50:01.442Z,5
2019-06-07T05:55:01.983Z,5
2019-06-07T06:00:01.310Z,6
2019-06-07T06:05:02.691Z,6
2019-06-07T06:10:01.563Z,5
2019-06-07T06:15:01.414Z,5
2019-06-07T06:20:02.120Z,4
2019-06-07T06:25:30.662Z,5
2019-06-07T06:30:02.377Z,6
2019-06-07T06:35:01.729Z,3
2019-06-07T06:40:01.480Z,6
2019-06-07T06:45:01.865Z,5
2019-06-07T06:50:02.254Z,6
2019-06-07T06:55:01.602Z,4
2019-06-07T07:00:01.942Z,6
2019-06-07T07:05:01.523Z,4
2019-06-07T07:10:03.186Z,5
2019-06-07T07:15:01.518Z,6
2019-06-07T07:20:01.965Z,5
2019-06-07T07:25:01.301Z,5
2019-06-07T07:30:34.755Z,6
2019-06-07T07:35:02.265Z,4
2019-06-07T07:40:54.916Z,4
2019-06-07T07:45:01.423Z,6
2019-06-07T07:50:01.788Z,5
2019-06-07T07:55:02.137Z,5
2019-06-07T08:00:36.141Z,6
2019-06-07T08:05:22.534Z,6
2019-06-07T08:10:04.235Z,5
2019-06-07T08:15:03.656Z,7
2019-06-07T08:20:02.801Z,4
2019-06-07T08:25:04.230Z,6
2019-06-07T08:30:25.676Z,5
2019-06-07T08:35:05.802Z,4
2019-06-07T08:40:02.016Z,4
2019-06-07T08:45:05.313Z,5
2019-06-07T08:50:07.434Z,4
2019-06-07T08:55:04.962Z,5
2019-06-07T09:00:07.160Z,4
2019-06-07T09:05:10.446Z,5
2019-06-07T09:15:14.829Z,5
2019-06-07T09:20:07.675Z,3
2019-06-07T09:25:10.490Z,5
2019-06-07T09:30:07.627Z,4
2019-06-07T09:35:08.127Z,5
2019-06-07T09:40:17.419Z,6
2019-06-07T09:45:04.353Z,4
2019-06-07T09:50:06.013Z,6
2019-06-07T09:55:09.175Z,5
2019-06-07T10:00:20.935Z,5
2019-06-07T10:05:05.196Z,6
2019-06-07T10:15:02.938Z,6
2019-06-07T10:20:02.582Z,6
2019-06-07T10:25:02.373Z,3
2019-06-07T10:30:02.308Z,5
2019-06-07T10:35:03.277Z,5
2019-06-07T10:40:02.670Z,5
2019-06-07T10:45:04.173Z,4
2019-06-07T10:50:02.285Z,5
2019-06-07T10:55:02.521Z,6
2019-06-07T11:00:03.370Z,5
2019-06-07T11:05:03.612Z,5
2019-06-07T11:10:07.253Z,5
2019-06-07T11:15:01.849Z,7
2019-06-07T11:20:02.333Z,6
2019-06-07T11:25:02.191Z,6
2019-06-07T11:30:01.757Z,5
2019-06-07T11:35:02.137Z,4
2019-06-07T11:40:01.949Z,5
2019-06-07T11:45:01.304Z,6
2019-06-07T11:50:01.695Z,6
2019-06-07T11:55:02.097Z,5
2019-06-07T12:00:01.418Z,4
2019-06-07T12:05:02.068Z,5
2019-06-07T12:10:01.857Z,5
2019-06-07T12:15:02.220Z,4
2019-06-07T12:20:02.539Z,4
2019-06-07T12:25:05.700Z,4
2019-06-07T12:30:09.198Z,5
2019-06-07T12:35:01.802Z,4
2019-06-07T12:40:01.820Z,5
2019-06-07T12:45:02.239Z,3
2019-06-07T12:50:01.788Z,6
2019-06-07T12:55:02.143Z,4
2019-06-07T13:00:01.448Z,4
2019-06-07T13:05:04.701Z,4
2019-06-07T13:10:01.866Z,5
2019-06-07T13:15:02.200Z,5
2019-06-07T13:20:01.642Z,4
2019-06-07T13:25:02.042Z,4
2019-06-07T13:30:09.227Z,6
2019-06-07T13:35:01.897Z,4
2019-06-07T13:40:01.620Z,4
2019-06-07T13:45:01.970Z,3
2019-06-07T13:50:01.385Z,5
2019-06-07T13:55:02.478Z,5
2019-06-07T14:00:10.453Z,4
2019-06-07T14:05:01.626Z,4
2019-06-07T14:10:01.438Z,4
2019-06-07T14:15:02.247Z,5
2019-06-07T14:20:01.656Z,6
2019-06-07T14:25:02.078Z,3
2019-06-07T14:30:01.488Z,4
2019-06-07T14:35:01.832Z,6
2019-06-07T14:40:01.662Z,3
2019-06-07T14:45:05.890Z,5
2019-06-07T14:50:01.841Z,5
2019-06-07T14:55:01.356Z,4
2019-06-07T15:00:10.427Z,7
2019-06-07T15:05:01.389Z,6
2019-06-07T15:10:02.212Z,3
2019-06-07T15:15:01.893Z,6
2019-06-07T15:20:01.552Z,3
2019-06-07T15:25:02.260Z,5
2019-06-07T15:30:09.516Z,4
2019-06-07T15:35:02.152Z,4
2019-06-07T15:40:01.979Z,5
2019-06-07T15:45:01.630Z,5
2019-06-07T15:50:02.144Z,5
2019-06-07T15:55:01.535Z,4
2019-06-07T16:00:01.971Z,5
2019-06-07T16:05:01.684Z,5
2019-06-07T16:10:01.484Z,4
2019-06-07T16:15:01.629Z,4
2019-06-07T16:20:02.161Z,5
2019-06-07T16:25:01.587Z,3
2019-06-07T16:30:09.111Z,3
2019-06-07T16:35:01.994Z,4
2019-06-07T16:40:01.795Z,5
2019-06-07T16:45:02.174Z,3
2019-06-07T16:50:01.479Z,4
2019-06-07T16:55:01.852Z,3
2019-06-07T17:00:02.200Z,4
2019-06-07T17:05:01.865Z,4
2019-06-07T17:10:01.743Z,3
2019-06-07T17:15:02.313Z,2
2019-06-07T17:20:01.815Z,3
2019-06-07T17:25:02.247Z,4
2019-06-07T17:30:01.579Z,2
2019-06-07T17:35:02.061Z,4
2019-06-07T17:40:02.026Z,3
2019-06-07T17:45:01.336Z,3
2019-06-07T17:50:01.963Z,3
2019-06-07T17:55:01.595Z,3
2019-06-07T18:00:27.121Z,2
2019-06-07T18:05:02.061Z,3
2019-06-07T18:10:01.853Z,3
2019-06-07T18:15:01.935Z,2
2019-06-07T18:20:01.335Z,3
2019-06-07T18:25:01.685Z,1
2019-06-07T18:30:10.864Z,3
2019-06-07T18:35:02.273Z,2
2019-06-07T18:40:02.082Z,3
2019-06-07T18:45:01.398Z,2
2019-06-07T18:50:01.801Z,2
2019-06-07T18:55:02.154Z,2
2019-06-07T19:00:01.505Z,3
2019-06-07T19:05:02.095Z,3
2019-06-07T19:10:01.877Z,2
2019-06-07T19:15:01.457Z,2
2019-06-07T19:20:01.977Z,1
2019-06-07T19:25:01.302Z,1
2019-06-07T19:30:01.672Z,2
2019-06-07T19:35:02.030Z,2
2019-06-07T19:40:02.773Z,2
2019-06-07T19:45:27.022Z,2
2019-06-07T19:50:03.086Z,1
2019-06-07T19:55:05.773Z,2
2019-06-07T20:00:04.119Z,1
2019-06-07T20:05:05.086Z,1
2019-06-07T20:10:02.963Z,2
2019-06-07T20:15:23.556Z,2
2019-06-07T20:20:02.697Z,1
2019-06-07T20:25:03.188Z,1
2019-06-07T20:30:02.426Z,2
2019-06-07T20:35:01.938Z,1
2019-06-07T20:40:16.629Z,1
2019-06-07T20:45:02.151Z,1
2019-06-07T20:50:02.426Z,1
2019-06-07T20:55:03.104Z,1
2019-06-07T21:00:10.405Z,1
2019-06-07T21:05:03.434Z,1
2019-06-07T21:10:01.783Z,1
2019-06-07T21:15:05.209Z,1
2019-06-07T21:20:02.956Z,1
2019-06-07T21:25:03.178Z,0
2019-06-07T21:30:03.269Z,1
2019-06-07T21:35:01.939Z,1
2019-06-07T21:40:02.217Z,1
2019-06-07T21:45:03.473Z,2
2019-06-07T21:50:02.640Z,2
2019-06-07T21:55:02.837Z,1
2019-06-07T22:00:01.348Z,1
2019-06-07T22:05:03.353Z,1
2019-06-07T22:10:03.608Z,2
2019-06-07T22:15:02.545Z,1
2019-06-07T22:20:01.843Z,1
2019-06-07T22:25:02.231Z,0
2019-06-07T22:30:02.282Z,0
2019-06-07T22:35:01.991Z,2
2019-06-07T22:40:01.418Z,2
2019-06-07T22:45:01.883Z,1
2019-06-07T22:50:02.327Z,0
2019-06-07T22:55:01.683Z,1
2019-06-07T23:00:08.580Z,1
2019-06-07T23:05:04.809Z,1
2019-06-07T23:10:01.789Z,1
2019-06-07T23:15:01.977Z,0
2019-06-07T23:20:01.851Z,0
2019-06-07T23:25:02.203Z,1
2019-06-07T23:30:08.126Z,1
2019-06-07T23:35:02.496Z,0
2019-06-07T23:40:01.421Z,1
2019-06-07T23:45:01.764Z,2
2019-06-07T23:50:02.152Z,1
2019-06-07T23:55:01.443Z,1
